createdAt,value
2022-10-16T00:01:41.563Z,6.88
2022-10-16T00:04:10.737Z,6.84
2022-10-16T00:06:37.957Z,6.70
2022-10-16T00:09:05.443Z,6.28
2022-10-16T00:11:35.401Z,6.70
2022-10-16T00:14:04.664Z,6.74
2022-10-16T00:16:32.667Z,6.62
2022-10-16T00:18:59.797Z,6.48
2022-10-16T00:21:29.685Z,6.51
2022-10-16T00:24:15.080Z,5.89
2022-10-16T00:26:42.436Z,6.58
2022-10-16T00:29:10.260Z,6.54
2022-10-16T00:31:37.759Z,6.50
2022-10-16T00:34:04.968Z,6.24
2022-10-16T00:36:33.273Z,6.41
2022-10-16T00:39:02.318Z,6.00
2022-10-16T00:41:33.095Z,6.33
2022-10-16T00:44:03.136Z,5.94
2022-10-16T00:46:38.335Z,6.22
2022-10-16T00:49:10.814Z,6.19
2022-10-16T00:51:42.313Z,6.32
2022-10-16T00:54:27.049Z,6.35
2022-10-16T00:56:55.675Z,6.11
2022-10-16T00:59:29.892Z,6.26
2022-10-16T01:01:58.646Z,6.29
2022-10-16T01:04:26.774Z,6.17
2022-10-16T01:07:11.951Z,6.19
2022-10-16T01:09:51.865Z,6.12
2022-10-16T01:12:38.594Z,5.83
2022-10-16T01:15:13.087Z,6.12
2022-10-16T01:17:49.380Z,6.11
2022-10-16T01:20:23.800Z,5.93
2022-10-16T01:23:16.092Z,6.09
2022-10-16T01:26:24.568Z,5.87
2022-10-16T01:28:57.279Z,5.85
2022-10-16T01:31:28.655Z,5.47
2022-10-16T01:34:07.109Z,5.92
2022-10-16T01:36:43.253Z,5.91
2022-10-16T01:39:12.598Z,5.88
2022-10-16T01:41:45.734Z,5.86
2022-10-16T01:44:22.875Z,5.85
2022-10-16T01:46:52.939Z,5.73
2022-10-16T01:49:23.414Z,5.80
2022-10-16T01:51:55.371Z,5.85
2022-10-16T01:54:27.665Z,5.84
2022-10-16T01:56:56.814Z,5.50
2022-10-16T01:59:26.779Z,5.88
2022-10-16T02:01:59.962Z,5.66
2022-10-16T02:04:34.845Z,5.73
2022-10-16T02:07:02.291Z,5.64
2022-10-16T02:09:31.754Z,5.81
2022-10-16T02:12:03.725Z,5.66
2022-10-16T02:14:31.891Z,5.79
2022-10-16T02:16:58.902Z,5.52
2022-10-16T02:19:25.941Z,5.61
2022-10-16T02:21:57.700Z,5.58
2022-10-16T02:24:59.980Z,5.74
2022-10-16T02:27:50.868Z,5.14
2022-10-16T02:30:21.545Z,5.61
2022-10-16T02:32:50.621Z,5.43
2022-10-16T02:35:21.417Z,5.30
2022-10-16T02:37:51.088Z,4.91
2022-10-16T02:40:21.513Z,5.40
2022-10-16T02:42:53.913Z,5.60
2022-10-16T02:45:21.584Z,5.57
2022-10-16T02:47:49.110Z,5.41
2022-10-16T02:50:16.812Z,5.42
2022-10-16T02:52:43.931Z,5.59
2022-10-16T02:55:10.988Z,5.60
2022-10-16T02:57:38.337Z,5.53
2022-10-16T03:00:14.545Z,5.62
2022-10-16T03:02:41.628Z,5.01
2022-10-16T03:05:09.962Z,5.16
2022-10-16T03:07:37.341Z,5.59
2022-10-16T03:10:04.741Z,5.57
2022-10-16T03:12:31.884Z,5.57
2022-10-16T03:14:59.548Z,5.33
2022-10-16T03:17:27.270Z,5.54
2022-10-16T03:19:54.413Z,5.52
2022-10-16T03:22:21.567Z,5.46
2022-10-16T03:24:48.549Z,4.93
2022-10-16T03:27:15.699Z,5.48
2022-10-16T03:29:42.863Z,5.43
2022-10-16T03:32:10.023Z,5.37
2022-10-16T03:34:37.136Z,5.26
2022-10-16T03:37:04.283Z,5.10
2022-10-16T03:39:31.522Z,5.31
2022-10-16T03:41:58.545Z,5.21
2022-10-16T03:44:25.687Z,5.21
2022-10-16T03:46:52.697Z,3.23
2022-10-16T03:49:19.767Z,5.16
2022-10-16T03:51:47.208Z,5.07
2022-10-16T03:54:14.271Z,3.97
2022-10-16T03:56:41.414Z,5.17
2022-10-16T03:59:08.443Z,5.20
2022-10-16T04:01:35.701Z,4.92
2022-10-16T04:04:02.804Z,5.14
2022-10-16T04:06:29.759Z,5.14
2022-10-16T04:08:57.330Z,4.53
2022-10-16T04:11:24.397Z,5.17
2022-10-16T04:13:51.415Z,5.14
2022-10-16T04:16:18.483Z,5.15
2022-10-16T04:18:45.586Z,5.18
2022-10-16T04:21:12.839Z,4.85
2022-10-16T04:23:39.935Z,5.16
2022-10-16T04:26:07.035Z,4.53
2022-10-16T04:28:34.220Z,4.79
2022-10-16T04:31:01.526Z,4.57
2022-10-16T04:33:28.614Z,5.15
2022-10-16T04:36:00.524Z,5.17
2022-10-16T04:38:27.647Z,5.34
2022-10-16T04:40:55.080Z,5.26
2022-10-16T04:43:22.704Z,5.29
2022-10-16T04:45:51.718Z,5.09
2022-10-16T04:48:19.597Z,5.39
2022-10-16T04:50:50.507Z,5.29
2022-10-16T04:53:21.320Z,5.47
2022-10-16T04:55:48.479Z,5.16
2022-10-16T04:58:15.677Z,4.97
2022-10-16T05:00:42.960Z,5.48
2022-10-16T05:03:10.213Z,5.58
2022-10-16T05:05:37.901Z,5.39
2022-10-16T05:08:05.179Z,5.48
2022-10-16T05:10:32.381Z,5.14
2022-10-16T05:12:59.545Z,5.67
2022-10-16T05:15:26.586Z,5.84
2022-10-16T05:17:55.103Z,5.90
2022-10-16T05:20:23.210Z,5.81
2022-10-16T05:22:50.404Z,5.74
2022-10-16T05:25:17.510Z,6.05
2022-10-16T05:27:44.734Z,6.16
2022-10-16T05:30:12.626Z,6.16
2022-10-16T05:32:39.826Z,6.35
2022-10-16T05:35:10.139Z,6.33
2022-10-16T05:37:39.683Z,6.44
2022-10-16T05:40:07.331Z,6.32
2022-10-16T05:42:34.442Z,6.13
2022-10-16T05:45:01.810Z,6.65
2022-10-16T05:47:30.238Z,6.79
2022-10-16T05:49:57.320Z,6.16
2022-10-16T05:52:24.445Z,6.95
2022-10-16T05:54:51.477Z,6.97
2022-10-16T05:57:18.454Z,7.16
2022-10-16T05:59:45.484Z,7.07
2022-10-16T06:02:17.616Z,7.26
2022-10-16T06:04:44.629Z,6.83
2022-10-16T06:07:11.990Z,7.55
2022-10-16T06:09:39.013Z,7.66
2022-10-16T06:12:06.164Z,7.73
2022-10-16T06:14:33.446Z,7.67
2022-10-16T06:17:00.573Z,7.89
2022-10-16T06:19:27.716Z,7.97
2022-10-16T06:21:54.756Z,7.97
2022-10-16T06:24:21.986Z,8.03
2022-10-16T06:26:48.975Z,8.21
2022-10-16T06:29:16.173Z,8.10
2022-10-16T06:31:43.187Z,8.32
2022-10-16T06:34:12.486Z,8.36
2022-10-16T06:36:40.076Z,9.00
2022-10-16T06:39:08.390Z,10.32
2022-10-16T06:41:35.675Z,12.07
2022-10-16T06:44:15.481Z,13.43
2022-10-16T06:46:42.481Z,14.98
2022-10-16T06:49:09.452Z,16.61
2022-10-16T06:51:43.264Z,17.82
2022-10-16T06:54:11.179Z,17.77
2022-10-16T06:56:38.689Z,17.19
2022-10-16T06:59:05.898Z,16.47
2022-10-16T07:01:33.756Z,16.12
2022-10-16T07:04:01.558Z,15.20
2022-10-16T07:06:33.350Z,14.21
2022-10-16T07:09:03.505Z,14.09
2022-10-16T07:11:30.660Z,13.77
2022-10-16T07:13:57.755Z,13.38
2022-10-16T07:16:29.883Z,12.85
2022-10-16T07:19:01.254Z,12.73
2022-10-16T07:21:30.939Z,12.49
2022-10-16T07:24:00.429Z,12.31
2022-10-16T07:26:29.535Z,12.46
2022-10-16T07:28:56.792Z,12.48
2022-10-16T07:31:24.405Z,12.18
2022-10-16T07:33:52.006Z,12.05
2022-10-16T07:36:20.694Z,12.11
2022-10-16T07:38:48.502Z,11.96
2022-10-16T07:41:18.607Z,12.04
2022-10-16T07:43:53.643Z,11.92
2022-10-16T07:46:22.752Z,11.66
2022-10-16T07:48:50.137Z,12.46
2022-10-16T07:51:19.900Z,12.74
2022-10-16T07:53:47.998Z,12.67
2022-10-16T07:56:16.225Z,12.79
2022-10-16T07:58:43.448Z,12.64
2022-10-16T08:01:14.265Z,12.81
2022-10-16T08:03:46.474Z,12.84
2022-10-16T08:06:13.575Z,13.34
2022-10-16T08:08:41.474Z,13.75
2022-10-16T08:11:09.205Z,15.16
2022-10-16T08:13:37.088Z,16.92
2022-10-16T08:16:08.973Z,19.00
2022-10-16T08:18:37.787Z,20.83
2022-10-16T08:21:05.842Z,22.38
2022-10-16T08:23:34.440Z,23.99
2022-10-16T08:26:07.432Z,25.19
2022-10-16T08:28:35.116Z,26.49
2022-10-16T08:31:11.114Z,27.39
2022-10-16T08:33:39.237Z,28.55
2022-10-16T08:36:07.216Z,28.79
2022-10-16T08:38:35.387Z,28.54
2022-10-16T08:41:14.642Z,28.64
2022-10-16T08:44:01.784Z,29.24
2022-10-16T08:46:52.610Z,29.75
2022-10-16T08:49:19.920Z,30.10
2022-10-16T08:51:49.445Z,30.42
2022-10-16T08:54:19.414Z,30.52
2022-10-16T08:56:47.218Z,30.15
2022-10-16T08:59:17.338Z,29.78
2022-10-16T09:01:51.033Z,28.87
2022-10-16T09:04:36.544Z,28.45
2022-10-16T09:07:12.667Z,26.67
2022-10-16T09:09:49.057Z,25.77
2022-10-16T09:12:22.638Z,25.68
2022-10-16T09:15:34.014Z,24.10
2022-10-16T09:18:21.352Z,21.96
2022-10-16T09:21:16.953Z,21.96
2022-10-16T09:23:44.751Z,20.77
2022-10-16T09:26:14.780Z,20.46
2022-10-16T09:28:42.637Z,20.43
2022-10-16T09:31:17.641Z,20.92
2022-10-16T09:33:46.563Z,21.28
2022-10-16T09:36:14.801Z,22.36
2022-10-16T09:38:42.021Z,23.08
2022-10-16T09:41:21.500Z,23.45
2022-10-16T09:43:54.896Z,22.98
2022-10-16T09:46:39.277Z,22.84
2022-10-16T09:49:24.471Z,22.70
2022-10-16T09:51:52.393Z,21.99
2022-10-16T09:54:22.062Z,21.48
2022-10-16T09:56:54.897Z,21.02
2022-10-16T09:59:27.809Z,20.33
2022-10-16T10:01:56.334Z,20.01
2022-10-16T10:04:29.668Z,19.87
2022-10-16T10:06:58.114Z,19.20
2022-10-16T10:09:36.443Z,19.08
2022-10-16T10:12:05.124Z,18.97
2022-10-16T10:14:38.632Z,19.05
2022-10-16T10:17:27.121Z,18.02
2022-10-16T10:20:04.676Z,17.12
2022-10-16T10:22:47.926Z,17.88
2022-10-16T10:25:15.469Z,17.52
2022-10-16T10:28:08.759Z,17.07
2022-10-16T10:30:56.332Z,17.05
2022-10-16T10:33:33.402Z,16.85
2022-10-16T10:36:15.788Z,16.68
2022-10-16T10:38:42.812Z,16.50
2022-10-16T10:41:25.422Z,16.53
2022-10-16T10:44:19.392Z,15.63
2022-10-16T10:46:56.812Z,16.22
2022-10-16T10:49:32.779Z,16.06
2022-10-16T10:52:24.967Z,16.53
2022-10-16T10:55:05.021Z,16.75
2022-10-16T10:58:02.687Z,16.40
2022-10-16T11:00:54.925Z,16.58
2022-10-16T11:03:27.654Z,16.37
2022-10-16T11:06:04.231Z,16.46
2022-10-16T11:08:40.927Z,16.14
2022-10-16T11:11:27.038Z,16.21
2022-10-16T11:14:03.019Z,16.09
2022-10-16T11:16:35.648Z,16.43
2022-10-16T11:19:15.880Z,16.61
2022-10-16T11:21:52.964Z,16.76
2022-10-16T11:24:50.243Z,16.37
2022-10-16T11:27:24.719Z,16.66
2022-10-16T11:30:02.842Z,16.55
2022-10-16T11:32:49.245Z,16.25
2022-10-16T11:35:23.726Z,16.50
2022-10-16T11:37:55.088Z,15.72
2022-10-16T11:40:32.006Z,16.21
2022-10-16T11:43:16.224Z,16.04
2022-10-16T11:45:50.687Z,15.68
2022-10-16T11:48:25.651Z,15.64
2022-10-16T11:51:02.764Z,15.49
2022-10-16T11:53:54.667Z,15.36
2022-10-16T11:56:22.848Z,14.97
2022-10-16T11:58:55.787Z,14.71
2022-10-16T12:01:48.898Z,14.54
2022-10-16T12:04:28.678Z,14.60
2022-10-16T12:07:09.959Z,14.82
2022-10-16T12:09:40.090Z,13.95
2022-10-16T12:12:38.436Z,14.72
2022-10-16T12:15:54.231Z,14.59
2022-10-16T12:18:25.845Z,13.83
2022-10-16T12:21:05.596Z,14.43
2022-10-16T12:23:37.588Z,14.45
2022-10-16T12:26:05.640Z,14.31
2022-10-16T12:28:37.524Z,14.22
2022-10-16T12:31:07.351Z,14.11
2022-10-16T12:34:00.898Z,14.23
2022-10-16T12:36:34.841Z,14.06
2022-10-16T12:39:04.369Z,14.12
2022-10-16T12:41:34.711Z,13.90
2022-10-16T12:44:03.683Z,13.85
2022-10-16T12:46:30.753Z,13.55
2022-10-16T12:49:17.624Z,13.07
2022-10-16T12:51:44.613Z,13.72
2022-10-16T12:54:30.549Z,13.78
2022-10-16T12:57:28.950Z,13.98
2022-10-16T13:00:04.700Z,13.75
2022-10-16T13:02:50.599Z,13.67
2022-10-16T13:05:54.752Z,13.85
2022-10-16T13:08:37.042Z,13.80
2022-10-16T13:11:14.999Z,12.87
2022-10-16T13:13:51.083Z,13.68
2022-10-16T13:16:42.108Z,13.59
2022-10-16T13:19:43.775Z,13.58
2022-10-16T13:22:35.234Z,13.51
2022-10-16T13:25:36.885Z,12.75
2022-10-16T13:28:07.624Z,13.40
2022-10-16T13:30:45.576Z,13.41
2022-10-16T13:33:37.466Z,12.81
2022-10-16T13:36:05.900Z,13.13
2022-10-16T13:38:35.205Z,13.08
2022-10-16T13:41:03.457Z,13.24
2022-10-16T13:43:44.513Z,13.18
2022-10-16T13:46:18.975Z,13.23
2022-10-16T13:48:57.071Z,13.03
2022-10-16T13:53:58.145Z,12.97
2022-10-16T13:56:31.580Z,12.15
2022-10-16T13:59:24.053Z,12.89
2022-10-16T14:01:55.403Z,12.62
2022-10-16T14:04:23.293Z,12.78
2022-10-16T14:06:52.302Z,12.37
2022-10-16T14:09:27.775Z,12.47
2022-10-16T14:11:59.498Z,12.43
2022-10-16T14:14:35.519Z,12.71
2022-10-16T14:17:04.472Z,12.55
2022-10-16T14:19:32.518Z,12.46
2022-10-16T14:22:02.659Z,12.40
2022-10-16T14:24:35.213Z,12.54
2022-10-16T14:27:03.694Z,12.36
2022-10-16T14:29:32.611Z,11.89
2022-10-16T14:32:02.753Z,11.42
2022-10-16T14:34:41.522Z,12.15
2022-10-16T14:37:30.193Z,12.24
2022-10-16T14:39:58.121Z,11.61
2022-10-16T14:42:26.898Z,11.90
2022-10-16T14:44:55.923Z,12.08
2022-10-16T14:47:30.936Z,11.74
2022-10-16T14:50:00.181Z,10.65
2022-10-16T14:52:27.275Z,11.59
2022-10-16T14:54:57.674Z,11.67
2022-10-16T14:57:29.229Z,11.72
2022-10-16T14:59:57.696Z,11.87
2022-10-16T15:02:35.240Z,11.29
2022-10-16T15:05:33.271Z,11.90
2022-10-16T15:08:00.388Z,11.78
2022-10-16T15:10:30.182Z,11.74
2022-10-16T15:12:57.388Z,11.59
2022-10-16T15:15:32.211Z,11.61
2022-10-16T15:18:01.629Z,11.57
2022-10-16T15:20:31.521Z,11.51
2022-10-16T15:23:00.911Z,11.12
2022-10-16T15:25:41.968Z,11.50
2022-10-16T15:28:10.510Z,11.44
2022-10-16T15:30:38.574Z,11.39
2022-10-16T15:33:10.691Z,11.42
2022-10-16T15:35:37.635Z,11.52
2022-10-16T15:38:04.825Z,11.38
2022-10-16T15:40:31.866Z,11.31
2022-10-16T15:42:58.864Z,11.41
2022-10-16T15:45:27.426Z,11.49
2022-10-16T15:47:54.335Z,11.07
2022-10-16T15:50:21.455Z,11.12
2022-10-16T15:52:48.586Z,11.22
2022-10-16T15:55:15.895Z,11.36
2022-10-16T15:57:43.890Z,11.28
2022-10-16T16:00:18.923Z,11.23
2022-10-16T16:02:51.897Z,11.23
2022-10-16T16:05:19.615Z,11.07
2022-10-16T16:07:46.771Z,11.21
2022-10-16T16:10:14.193Z,11.20
2022-10-16T16:12:41.569Z,10.96
2022-10-16T16:15:10.236Z,10.54
2022-10-16T16:17:37.803Z,11.16
2022-10-16T16:20:06.175Z,11.04
2022-10-16T16:22:33.283Z,10.65
2022-10-16T16:25:00.407Z,11.15
2022-10-16T16:27:30.094Z,11.17
2022-10-16T16:29:57.626Z,11.03
2022-10-16T16:32:24.696Z,11.04
2022-10-16T16:34:52.138Z,10.99
2022-10-16T16:37:19.320Z,10.96
2022-10-16T16:39:46.359Z,11.03
2022-10-16T16:42:14.588Z,10.25
2022-10-16T16:44:41.919Z,11.05
2022-10-16T16:47:09.049Z,10.93
2022-10-16T16:49:36.188Z,11.05
2022-10-16T16:52:03.436Z,10.99
2022-10-16T16:54:30.515Z,10.97
2022-10-16T16:56:57.692Z,10.17
2022-10-16T16:59:24.842Z,10.87
2022-10-16T17:01:56.664Z,10.60
2022-10-16T17:04:25.937Z,10.82
2022-10-16T17:06:56.776Z,10.53
2022-10-16T17:09:24.374Z,10.70
2022-10-16T17:11:51.560Z,10.31
2022-10-16T17:14:18.723Z,10.27
2022-10-16T17:16:45.967Z,10.73
2022-10-16T17:19:18.819Z,10.80
2022-10-16T17:21:48.799Z,10.68
2022-10-16T17:24:15.977Z,10.71
2022-10-16T17:26:48.900Z,10.75
2022-10-16T17:29:18.572Z,10.77
2022-10-16T17:31:49.958Z,10.38
2022-10-16T17:34:17.078Z,10.57
2022-10-16T17:36:44.323Z,10.60
2022-10-16T17:39:13.926Z,10.69
2022-10-16T17:41:40.993Z,10.44
2022-10-16T17:44:08.748Z,10.10
2022-10-16T17:46:40.030Z,10.57
2022-10-16T17:49:09.688Z,10.59
2022-10-16T17:51:36.970Z,10.54
2022-10-16T17:54:05.358Z,10.04
2022-10-16T17:56:32.399Z,10.55
2022-10-16T17:59:01.991Z,10.04
2022-10-16T18:01:32.353Z,10.52
2022-10-16T18:04:14.651Z,10.58
2022-10-16T18:06:44.113Z,10.58
2022-10-16T18:09:14.657Z,9.98
2022-10-16T18:11:41.845Z,10.22
2022-10-16T18:14:08.983Z,10.45
2022-10-16T18:16:37.051Z,10.41
2022-10-16T18:19:04.314Z,10.53
2022-10-16T18:21:31.721Z,10.48
2022-10-16T18:24:01.462Z,10.37
2022-10-16T18:26:29.540Z,10.01
2022-10-16T18:28:58.097Z,10.29
2022-10-16T18:31:26.720Z,10.34
2022-10-16T18:33:55.818Z,10.08
2022-10-16T18:36:26.775Z,9.00
2022-10-16T18:38:54.219Z,10.28
2022-10-16T18:41:22.454Z,10.25
2022-10-16T18:43:51.281Z,9.72
2022-10-16T18:46:23.543Z,10.35
2022-10-16T18:48:54.530Z,10.13
2022-10-16T18:51:24.471Z,10.24
2022-10-16T18:53:54.300Z,10.20
2022-10-16T18:56:23.532Z,9.92
2022-10-16T18:58:59.306Z,9.64
2022-10-16T19:01:28.953Z,9.89
2022-10-16T19:04:01.834Z,10.13
2022-10-16T19:06:29.695Z,10.15
2022-10-16T19:08:57.673Z,10.03
2022-10-16T19:11:26.180Z,10.06
2022-10-16T19:13:56.592Z,9.98
2022-10-16T19:16:29.313Z,9.92
2022-10-16T19:18:58.333Z,9.85
2022-10-16T19:21:27.221Z,9.96
2022-10-16T19:23:58.616Z,9.98
2022-10-16T19:26:27.011Z,9.85
2022-10-16T19:28:58.488Z,9.97
2022-10-16T19:31:29.411Z,9.96
2022-10-16T19:33:59.829Z,9.71
2022-10-16T19:36:29.878Z,9.98
2022-10-16T19:39:02.790Z,9.94
2022-10-16T19:41:30.939Z,9.79
2022-10-16T19:44:02.911Z,9.78
2022-10-16T19:46:32.194Z,9.94
2022-10-16T19:49:01.858Z,9.84
2022-10-16T19:51:29.824Z,9.96
2022-10-16T19:54:02.040Z,9.68
2022-10-16T19:56:30.499Z,9.90
2022-10-16T19:58:58.743Z,9.16
2022-10-16T20:01:28.391Z,9.04
2022-10-16T20:03:55.818Z,9.82
2022-10-16T20:06:23.298Z,9.66
2022-10-16T20:08:52.356Z,9.85
2022-10-16T20:11:25.064Z,9.84
2022-10-16T20:13:52.318Z,9.87
2022-10-16T20:16:20.417Z,9.28
2022-10-16T20:18:49.687Z,9.75
2022-10-16T20:21:19.895Z,9.89
2022-10-16T20:23:49.245Z,9.82
2022-10-16T20:26:18.033Z,9.77
2022-10-16T20:28:45.279Z,9.74
2022-10-16T20:31:20.826Z,9.25
2022-10-16T20:33:47.970Z,9.63
2022-10-16T20:36:16.246Z,9.76
2022-10-16T20:38:43.359Z,9.65
2022-10-16T20:41:12.018Z,9.70
2022-10-16T20:43:44.609Z,9.34
2022-10-16T20:46:14.843Z,9.72
2022-10-16T20:48:46.939Z,9.60
2022-10-16T20:51:17.202Z,9.41
2022-10-16T20:53:46.649Z,9.50
2022-10-16T20:56:16.172Z,9.44
2022-10-16T20:58:44.737Z,9.68
2022-10-16T21:01:17.512Z,9.64
2022-10-16T21:03:51.065Z,9.62
2022-10-16T21:06:18.170Z,9.54
2022-10-16T21:08:45.191Z,9.58
2022-10-16T21:11:27.744Z,9.29
2022-10-16T21:13:59.126Z,8.41
2022-10-16T21:16:27.108Z,9.52
2022-10-16T21:18:55.024Z,9.50
2022-10-16T21:21:29.967Z,9.48
2022-10-16T21:23:58.229Z,8.98
2022-10-16T21:26:26.652Z,9.43
2022-10-16T21:28:56.650Z,9.30
2022-10-16T21:31:24.102Z,9.30
2022-10-16T21:33:51.453Z,9.42
2022-10-16T21:36:21.528Z,9.41
2022-10-16T21:38:49.127Z,9.26
2022-10-16T21:41:20.990Z,9.26
2022-10-16T21:43:48.667Z,9.26
2022-10-16T21:46:19.955Z,9.30
2022-10-16T21:48:47.576Z,9.27
2022-10-16T21:51:15.171Z,9.23
2022-10-16T21:53:42.301Z,9.18
2022-10-16T21:56:15.109Z,9.09
2022-10-16T21:58:42.439Z,9.08
2022-10-16T22:01:11.908Z,9.13
2022-10-16T22:03:39.082Z,9.25
2022-10-16T22:06:08.089Z,9.20
2022-10-16T22:08:38.173Z,9.08
2022-10-16T22:11:14.072Z,9.13
2022-10-16T22:13:42.110Z,9.25
2022-10-16T22:16:09.724Z,8.99
2022-10-16T22:18:37.937Z,9.17
2022-10-16T22:21:09.533Z,9.02
2022-10-16T22:23:36.940Z,9.02
2022-10-16T22:26:07.358Z,9.11
2022-10-16T22:28:34.720Z,9.05
2022-10-16T22:31:03.685Z,9.12
2022-10-16T22:33:30.885Z,9.15
2022-10-16T22:36:01.088Z,8.89
2022-10-16T22:38:32.446Z,8.06
2022-10-16T22:41:07.989Z,9.10
2022-10-16T22:43:36.861Z,8.69
2022-10-16T22:46:05.807Z,9.09
2022-10-16T22:48:32.873Z,8.99
2022-10-16T22:51:00.315Z,9.01
2022-10-16T22:53:27.482Z,8.22
2022-10-16T22:55:54.539Z,8.81
2022-10-16T22:58:22.234Z,8.81
2022-10-16T23:00:50.061Z,8.97
2022-10-16T23:03:17.649Z,8.98
2022-10-16T23:05:45.465Z,8.90
2022-10-16T23:08:13.243Z,8.61
2022-10-16T23:10:42.752Z,8.79
2022-10-16T23:13:10.723Z,8.83
2022-10-16T23:15:44.804Z,8.74
2022-10-16T23:18:12.448Z,8.81
2022-10-16T23:20:40.942Z,8.88
2022-10-16T23:23:08.563Z,8.73
2022-10-16T23:25:36.917Z,8.57
2022-10-16T23:28:04.603Z,8.67
2022-10-16T23:30:31.641Z,8.67
2022-10-16T23:32:58.778Z,8.79
2022-10-16T23:35:25.917Z,8.73
2022-10-16T23:37:59.786Z,8.84
2022-10-16T23:40:30.053Z,9.00
2022-10-16T23:42:57.100Z,8.91
2022-10-16T23:45:24.236Z,8.86
2022-10-16T23:47:51.413Z,8.84
2022-10-16T23:50:18.506Z,8.65
2022-10-16T23:52:45.508Z,8.41
2022-10-16T23:55:12.658Z,8.23
2022-10-16T23:57:39.710Z,8.36
